Penysarn, United Kingdom
Current Conditions -  °F | °C
As of 8:50 PM on Monday 24 Nov 2014 (Local Time) from EGOV Reporting Station
Broken Clouds Broken Clouds  
Wind Chill: 52°   Ceiling: 3200
Heat Index: 52°   Visibility: 6mi
Dew Point: 41°   Wind: 13mph
Humidity: 67%   Direction: 230°SW
Pressure: 30.3"   Gusts: NA
Location:  53.39°N, 4.32°W
Report Text: EGOV 242050Z 23011KT 9999 BKN032 11/05 Q1026 BLU
Loading
Personal Weather Stations






























Interactive Weather Map New forecast layout! Learn more

10-Day Weather Forecast

Advertisements
Track Severe Weather on mobile